Time;durP1;ratioP1;P1;durP2;ratioP2;P2;SDS_P1;SDS_P2;PMS_P1;PMS_P2;Temp;Humidity;BMP_temperature;BMP_pressure;BME280_temperature;BME280_humidity;BME280_pressure;Samples;Min_cycle;Max_cycle;Signal;HPM_P1;HPM_P2
2023/03/26 00:01:35;;;;;;;10.27;5.00;;;;;;;;;;4994241;28;20045;-57
2023/03/26 00:04:02;;;;;;;13.57;5.18;;;;;;;;;;4995165;28;20045;-56
2023/03/26 00:06:30;;;;;;;11.73;7.10;;;;;;;;;;4994490;28;21805;-58
2023/03/26 00:08:58;;;;;;;11.05;5.75;;;;;;;;;;4994701;28;20113;-58
2023/03/26 00:11:26;;;;;;;11.63;6.57;;;;;;;;;;4994319;28;20042;-58
2023/03/26 00:13:55;;;;;;;9.27;5.70;;;;;;;;;;4994418;28;20045;-58
2023/03/26 00:16:22;;;;;;;14.90;9.85;;;;;;;;;;4995241;28;20127;-59
2023/03/26 00:18:50;;;;;;;11.80;8.15;;;;;;;;;;4994109;28;20037;-56
2023/03/26 00:21:29;;;;;;;12.18;7.35;;;;;;;;;;4995651;28;20517;-57
2023/03/26 00:24:03;;;;;;;15.02;8.25;;;;;;;;;;5000773;28;20040;-57
2023/03/26 00:26:30;;;;;;;12.93;8.18;;;;;;;;;;4993195;28;20042;-58
2023/03/26 00:28:57;;;;;;;12.73;7.13;;;;;;;;;;4993630;28;20050;-60
2023/03/26 00:31:24;;;;;;;12.23;7.68;;;;;;;;;;4993983;28;20044;-59
2023/03/26 00:33:55;;;;;;;10.65;6.15;;;;;;;;;;4994190;28;20076;-58
2023/03/26 00:36:24;;;;;;;13.43;6.50;;;;;;;;;;4993640;28;20081;-60
2023/03/26 00:38:51;;;;;;;9.68;5.82;;;;;;;;;;4997728;28;20061;-57
2023/03/26 00:41:24;;;;;;;10.50;5.80;;;;;;;;;;4997055;28;20034;-60
2023/03/26 00:43:55;;;;;;;11.60;6.50;;;;;;;;;;4994818;28;20116;-58
2023/03/26 00:46:22;;;;;;;11.40;6.93;;;;;;;;;;4994455;28;20046;-56
2023/03/26 00:48:49;;;;;;;13.25;7.18;;;;;;;;;;4993827;28;20050;-58
2023/03/26 00:51:16;;;;;;;15.88;7.65;;;;;;;;;;4994607;28;20048;-60
2023/03/26 00:53:44;;;;;;;11.77;6.75;;;;;;;;;;5001377;28;20053;-60
2023/03/26 00:56:11;;;;;;;10.70;6.18;;;;;;;;;;4994108;28;20083;-58
2023/03/26 00:58:38;;;;;;;9.85;5.53;;;;;;;;;;4999951;28;20045;-58
2023/03/26 01:01:07;;;;;;;9.50;5.57;;;;;;;;;;4993983;28;20050;-57
2023/03/26 01:03:34;;;;;;;15.52;6.50;;;;;;;;;;4994477;28;20034;-58
2023/03/26 01:06:03;;;;;;;13.20;6.45;;;;;;;;;;4995090;28;20037;-58
2023/03/26 01:08:50;;;;;;;13.00;6.75;;;;;;;;;;4993758;28;20473;-59
2023/03/26 01:11:36;;;;;;;11.40;6.13;;;;;;;;;;4995291;28;21482;-60
2023/03/26 01:14:08;;;;;;;14.02;7.63;;;;;;;;;;4994275;28;20050;-57
2023/03/26 01:16:48;;;;;;;14.43;7.30;;;;;;;;;;4993930;28;20396;-59
2023/03/26 01:19:25;;;;;;;9.98;6.38;;;;;;;;;;4984986;28;20100;-57
2023/03/26 01:21:52;;;;;;;12.35;7.07;;;;;;;;;;5002623;28;20041;-58
2023/03/26 01:24:19;;;;;;;11.75;6.45;;;;;;;;;;4997740;28;20092;-60
2023/03/26 01:26:52;;;;;;;12.07;7.25;;;;;;;;;;4998036;28;20088;-58
2023/03/26 01:29:22;;;;;;;17.58;7.85;;;;;;;;;;4991306;28;20034;-59
2023/03/26 01:31:49;;;;;;;15.02;7.57;;;;;;;;;;4991479;28;20101;-56
2023/03/26 01:34:29;;;;;;;15.13;7.47;;;;;;;;;;4998305;28;20128;-58
2023/03/26 01:37:29;;;;;;;14.48;8.10;;;;;;;;;;5002809;28;20034;-58
2023/03/26 01:40:05;;;;;;;16.90;7.40;;;;;;;;;;4984131;28;20145;-58
2023/03/26 01:42:37;;;;;;;12.88;7.43;;;;;;;;;;4998348;28;20077;-59
2023/03/26 01:45:24;;;;;;;12.20;7.70;;;;;;;;;;5006538;28;20042;-59
2023/03/26 01:47:51;;;;;;;13.77;7.00;;;;;;;;;;4997759;28;20708;-59
2023/03/26 01:50:17;;;;;;;12.75;7.63;;;;;;;;;;4998944;28;20620;-60
2023/03/26 01:52:44;;;;;;;18.55;7.93;;;;;;;;;;4997946;28;20050;-63
2023/03/26 01:55:13;;;;;;;15.10;7.88;;;;;;;;;;4998827;28;20030;-58
2023/03/26 01:57:59;;;;;;;12.80;6.63;;;;;;;;;;4989276;28;20036;-58
2023/03/26 02:00:29;;;;;;;13.32;7.13;;;;;;;;;;5002804;28;20037;-60
2023/03/26 02:02:56;;;;;;;12.30;6.38;;;;;;;;;;5001529;28;20052;-58
2023/03/26 02:05:33;;;;;;;11.77;6.40;;;;;;;;;;5000391;28;20056;-59
2023/03/26 02:08:10;;;;;;;11.13;6.70;;;;;;;;;;4997326;28;20056;-57
2023/03/26 02:10:48;;;;;;;12.20;6.93;;;;;;;;;;4998346;28;20042;-58
2023/03/26 02:13:14;;;;;;;11.05;6.45;;;;;;;;;;4998553;28;20057;-59
2023/03/26 02:15:41;;;;;;;12.32;7.45;;;;;;;;;;4997574;28;20081;-57
2023/03/26 02:18:12;;;;;;;14.48;7.70;;;;;;;;;;4997698;28;20046;-57
2023/03/26 02:20:38;;;;;;;18.80;7.85;;;;;;;;;;4998347;28;20046;-57
2023/03/26 02:23:05;;;;;;;18.92;8.60;;;;;;;;;;4997951;28;20045;-60
2023/03/26 02:25:34;;;;;;;14.30;8.90;;;;;;;;;;4998134;28;20037;-59
2023/03/26 02:28:00;;;;;;;18.35;8.70;;;;;;;;;;4997103;28;20049;-60
2023/03/26 02:30:28;;;;;;;15.63;8.30;;;;;;;;;;4997496;28;20038;-57
2023/03/26 02:32:57;;;;;;;16.17;8.50;;;;;;;;;;4998258;28;20157;-57
2023/03/26 02:35:24;;;;;;;15.13;8.23;;;;;;;;;;4997514;28;20041;-57
2023/03/26 02:37:51;;;;;;;17.35;8.18;;;;;;;;;;4997485;28;20041;-57
2023/03/26 02:40:20;;;;;;;19.25;9.32;;;;;;;;;;4995967;28;20034;-57
2023/03/26 02:42:46;;;;;;;14.95;8.88;;;;;;;;;;4996117;28;20038;-57
2023/03/26 02:45:14;;;;;;;16.60;8.68;;;;;;;;;;4997322;28;20038;-57
2023/03/26 02:47:42;;;;;;;16.42;8.57;;;;;;;;;;4996262;28;20503;-57
2023/03/26 02:50:10;;;;;;;14.18;8.63;;;;;;;;;;4997027;28;20038;-59
2023/03/26 02:52:37;;;;;;;14.32;8.95;;;;;;;;;;4996718;28;20092;-57
2023/03/26 02:55:04;;;;;;;14.25;8.98;;;;;;;;;;4997336;28;20096;-57
2023/03/26 02:57:30;;;;;;;17.48;9.15;;;;;;;;;;4996945;28;20034;-57
2023/03/26 02:59:57;;;;;;;13.48;7.72;;;;;;;;;;4997297;28;20517;-56
2023/03/26 03:02:24;;;;;;;16.90;7.75;;;;;;;;;;4997523;28;20041;-58
2023/03/26 03:04:51;;;;;;;17.05;7.93;;;;;;;;;;4995321;28;20041;-58
2023/03/26 03:07:17;;;;;;;14.23;7.35;;;;;;;;;;4997420;28;20042;-58
2023/03/26 03:09:44;;;;;;;11.98;7.70;;;;;;;;;;4998927;28;20046;-57
2023/03/26 03:12:11;;;;;;;15.18;8.23;;;;;;;;;;5001639;28;20057;-58
2023/03/26 03:14:39;;;;;;;13.00;7.82;;;;;;;;;;4995358;28;20049;-57
2023/03/26 03:17:06;;;;;;;13.40;8.15;;;;;;;;;;4995367;28;20042;-57
2023/03/26 03:19:32;;;;;;;16.73;9.00;;;;;;;;;;4995177;28;20046;-58
2023/03/26 03:21:59;;;;;;;14.60;8.45;;;;;;;;;;4994078;28;20057;-58
2023/03/26 03:24:26;;;;;;;14.43;8.55;;;;;;;;;;4995686;28;20081;-57
2023/03/26 03:26:55;;;;;;;12.98;8.10;;;;;;;;;;4995159;28;20042;-59
2023/03/26 03:29:22;;;;;;;14.25;7.68;;;;;;;;;;4995609;28;20046;-57
2023/03/26 03:31:49;;;;;;;15.75;8.25;;;;;;;;;;4996140;28;20386;-56
2023/03/26 03:34:16;;;;;;;12.82;7.63;;;;;;;;;;4995472;28;20050;-57
2023/03/26 03:36:47;;;;;;;12.13;7.43;;;;;;;;;;4993928;28;20039;-56
2023/03/26 03:39:14;;;;;;;12.43;7.28;;;;;;;;;;4995945;28;20585;-56
2023/03/26 03:41:41;;;;;;;13.90;7.38;;;;;;;;;;4994744;28;20062;-56
2023/03/26 03:44:08;;;;;;;12.90;7.40;;;;;;;;;;4995036;28;20843;-57
2023/03/26 03:46:35;;;;;;;12.57;7.22;;;;;;;;;;4994554;28;20474;-58
2023/03/26 03:49:01;;;;;;;11.63;6.97;;;;;;;;;;4993858;28;20390;-57
2023/03/26 03:51:28;;;;;;;14.60;7.78;;;;;;;;;;4993668;28;20094;-57
2023/03/26 03:53:55;;;;;;;13.90;7.10;;;;;;;;;;4997018;28;20050;-58
2023/03/26 03:56:23;;;;;;;15.93;8.63;;;;;;;;;;4990851;28;20168;-59
2023/03/26 03:58:50;;;;;;;14.43;8.20;;;;;;;;;;4993003;28;20042;-59
2023/03/26 04:01:17;;;;;;;13.27;7.78;;;;;;;;;;4991621;28;20068;-55
2023/03/26 04:03:44;;;;;;;13.27;8.00;;;;;;;;;;4999447;28;20509;-56
2023/03/26 04:06:12;;;;;;;12.85;7.93;;;;;;;;;;4999717;28;20103;-58
2023/03/26 04:08:39;;;;;;;16.83;9.10;;;;;;;;;;4994276;28;20049;-57
2023/03/26 04:11:06;;;;;;;14.40;8.25;;;;;;;;;;4995339;28;20049;-57
2023/03/26 04:13:32;;;;;;;14.48;8.27;;;;;;;;;;4995178;28;20177;-58
2023/03/26 04:15:59;;;;;;;15.63;9.38;;;;;;;;;;4994811;28;20501;-56
2023/03/26 04:18:26;;;;;;;14.60;8.63;;;;;;;;;;4993317;28;20037;-55
2023/03/26 04:20:54;;;;;;;14.75;8.93;;;;;;;;;;4990325;28;20487;-57
2023/03/26 04:23:22;;;;;;;15.63;8.95;;;;;;;;;;4990456;28;20091;-57
2023/03/26 04:25:52;;;;;;;17.10;8.80;;;;;;;;;;4995645;28;20046;-55
2023/03/26 04:28:34;;;;;;;18.45;9.23;;;;;;;;;;4993571;28;20038;-57
2023/03/26 04:31:02;;;;;;;16.77;9.32;;;;;;;;;;4994805;28;20057;-57
2023/03/26 04:33:33;;;;;;;17.60;9.90;;;;;;;;;;4995023;28;20054;-58
2023/03/26 04:36:01;;;;;;;17.77;10.65;;;;;;;;;;4996062;28;20037;-58
2023/03/26 04:38:32;;;;;;;16.52;9.48;;;;;;;;;;4993925;28;20053;-61
2023/03/26 04:41:00;;;;;;;17.65;10.65;;;;;;;;;;4995064;28;20052;-56
2023/03/26 04:43:27;;;;;;;18.52;10.07;;;;;;;;;;4994809;28;20643;-58
2023/03/26 04:45:54;;;;;;;16.15;10.07;;;;;;;;;;4995256;28;20084;-60
2023/03/26 04:48:20;;;;;;;17.60;10.40;;;;;;;;;;4993776;28;20038;-64
2023/03/26 04:50:47;;;;;;;15.77;10.25;;;;;;;;;;5001709;28;20038;-59
2023/03/26 04:53:16;;;;;;;21.45;10.80;;;;;;;;;;4995587;28;20076;-58
2023/03/26 04:56:04;;;;;;;17.95;10.52;;;;;;;;;;4994409;28;20558;-59
2023/03/26 04:58:32;;;;;;;15.73;9.93;;;;;;;;;;4994323;28;20245;-60
2023/03/26 05:01:04;;;;;;;18.92;10.60;;;;;;;;;;4994619;28;20451;-59
2023/03/26 05:03:31;;;;;;;17.83;10.55;;;;;;;;;;4993699;28;20046;-56
2023/03/26 05:05:59;;;;;;;18.33;9.93;;;;;;;;;;5002307;28;20038;-60
2023/03/26 05:08:27;;;;;;;18.58;10.35;;;;;;;;;;4994140;28;20042;-57
2023/03/26 05:10:57;;;;;;;19.17;9.80;;;;;;;;;;4995067;28;20071;-56
2023/03/26 05:13:24;;;;;;;20.50;10.90;;;;;;;;;;5017519;28;20053;-59
2023/03/26 05:15:51;;;;;;;16.42;9.45;;;;;;;;;;4994994;28;21038;-57
2023/03/26 05:18:18;;;;;;;17.75;10.25;;;;;;;;;;4992913;28;20518;-63
2023/03/26 05:20:45;;;;;;;17.95;10.50;;;;;;;;;;4994545;28;20042;-58
2023/03/26 05:23:11;;;;;;;17.70;9.80;;;;;;;;;;4994462;28;20129;-57
2023/03/26 05:25:38;;;;;;;17.25;10.35;;;;;;;;;;4994218;28;20034;-56
2023/03/26 05:28:05;;;;;;;18.77;10.50;;;;;;;;;;4993759;28;20034;-56
2023/03/26 05:30:31;;;;;;;16.92;9.38;;;;;;;;;;4994070;28;20042;-57
2023/03/26 05:32:58;;;;;;;17.38;9.60;;;;;;;;;;4994691;28;20085;-56
2023/03/26 05:35:25;;;;;;;18.60;10.18;;;;;;;;;;4993845;28;20038;-56
2023/03/26 05:37:51;;;;;;;18.88;9.82;;;;;;;;;;4994624;28;20125;-60
2023/03/26 05:40:18;;;;;;;16.58;9.77;;;;;;;;;;4994776;28;20085;-56
2023/03/26 05:42:46;;;;;;;16.92;10.27;;;;;;;;;;4994034;28;20774;-56
2023/03/26 05:45:14;;;;;;;16.50;9.15;;;;;;;;;;4993492;28;20050;-58
2023/03/26 05:47:40;;;;;;;16.73;9.68;;;;;;;;;;4993007;28;20038;-58
2023/03/26 05:50:08;;;;;;;18.58;9.98;;;;;;;;;;4995240;28;20041;-56
2023/03/26 05:52:34;;;;;;;15.43;9.40;;;;;;;;;;4994095;28;20055;-55
2023/03/26 05:55:01;;;;;;;13.75;8.73;;;;;;;;;;5009756;28;20406;-58
2023/03/26 05:57:31;;;;;;;14.75;9.27;;;;;;;;;;4996524;28;20084;-56
2023/03/26 05:59:58;;;;;;;16.10;8.85;;;;;;;;;;5013074;28;20049;-56
2023/03/26 06:02:24;;;;;;;15.80;9.07;;;;;;;;;;4996545;28;20455;-56
2023/03/26 06:04:51;;;;;;;14.77;8.80;;;;;;;;;;4995039;28;20033;-58
2023/03/26 06:07:18;;;;;;;20.52;8.93;;;;;;;;;;4994304;28;20046;-58
2023/03/26 06:09:45;;;;;;;18.20;9.45;;;;;;;;;;4998735;28;20092;-56
2023/03/26 06:12:12;;;;;;;16.08;8.88;;;;;;;;;;4994634;28;20121;-56
2023/03/26 06:14:38;;;;;;;14.85;8.00;;;;;;;;;;4996665;28;20770;-59
2023/03/26 06:17:05;;;;;;;13.15;7.97;;;;;;;;;;4997622;28;20189;-57
2023/03/26 06:19:32;;;;;;;11.82;7.55;;;;;;;;;;4997360;28;20948;-58
2023/03/26 06:21:58;;;;;;;14.57;8.15;;;;;;;;;;4998500;28;20092;-58
2023/03/26 06:24:25;;;;;;;12.80;7.65;;;;;;;;;;4997148;28;20373;-58
2023/03/26 06:26:52;;;;;;;11.35;7.15;;;;;;;;;;4996483;28;20439;-60
2023/03/26 06:29:18;;;;;;;12.98;7.00;;;;;;;;;;4996502;28;20041;-60
2023/03/26 06:31:45;;;;;;;11.82;6.72;;;;;;;;;;4998295;28;20879;-57
2023/03/26 06:34:12;;;;;;;13.02;6.43;;;;;;;;;;4996623;28;20357;-55
2023/03/26 06:36:38;;;;;;;13.30;6.43;;;;;;;;;;4996967;28;20375;-58
2023/03/26 06:39:06;;;;;;;10.55;6.35;;;;;;;;;;4997964;28;20120;-57
2023/03/26 06:41:33;;;;;;;11.68;6.00;;;;;;;;;;4997301;28;20618;-57
2023/03/26 06:44:00;;;;;;;9.10;5.32;;;;;;;;;;4998043;28;20148;-57
2023/03/26 06:46:27;;;;;;;11.32;5.55;;;;;;;;;;4996504;28;20041;-57
2023/03/26 06:48:53;;;;;;;11.23;6.40;;;;;;;;;;4997252;28;20042;-59
2023/03/26 06:51:20;;;;;;;13.50;5.97;;;;;;;;;;4997484;28;20042;-58
2023/03/26 06:53:47;;;;;;;9.35;5.32;;;;;;;;;;4997587;28;20093;-57
2023/03/26 06:56:13;;;;;;;9.80;5.25;;;;;;;;;;4997230;28;20121;-59
2023/03/26 06:58:40;;;;;;;9.10;5.10;;;;;;;;;;4996371;28;20038;-57
2023/03/26 07:01:07;;;;;;;8.65;5.22;;;;;;;;;;4997167;28;20038;-58
2023/03/26 07:03:33;;;;;;;9.10;5.00;;;;;;;;;;4996970;28;20735;-57
2023/03/26 07:06:00;;;;;;;9.32;4.80;;;;;;;;;;4997561;28;20390;-56
2023/03/26 07:08:27;;;;;;;10.35;5.38;;;;;;;;;;4995979;28;20065;-58
2023/03/26 07:10:53;;;;;;;9.95;4.60;;;;;;;;;;4995106;28;20775;-58
2023/03/26 07:13:20;;;;;;;8.77;4.85;;;;;;;;;;4996714;28;20138;-56
2023/03/26 07:15:48;;;;;;;9.32;5.43;;;;;;;;;;4997437;28;20168;-58
2023/03/26 07:18:15;;;;;;;8.10;4.30;;;;;;;;;;4996724;28;20138;-56
2023/03/26 07:20:41;;;;;;;13.77;5.93;;;;;;;;;;4995967;28;20045;-56
2023/03/26 07:23:10;;;;;;;10.18;5.97;;;;;;;;;;4995951;28;20100;-56
2023/03/26 07:25:36;;;;;;;10.50;6.60;;;;;;;;;;4995703;28;20156;-55
2023/03/26 07:28:12;;;;;;;12.10;6.95;;;;;;;;;;4996140;28;20034;-56
2023/03/26 07:30:57;;;;;;;12.25;6.45;;;;;;;;;;4995152;28;20042;-57
2023/03/26 07:33:26;;;;;;;13.57;6.03;;;;;;;;;;4995821;28;20042;-57
2023/03/26 07:35:59;;;;;;;11.57;6.10;;;;;;;;;;4996534;28;20046;-55
2023/03/26 07:38:44;;;;;;;10.67;5.83;;;;;;;;;;4994893;28;20034;-55
2023/03/26 07:41:14;;;;;;;11.80;5.72;;;;;;;;;;4996486;28;20045;-55
2023/03/26 07:43:50;;;;;;;9.45;5.55;;;;;;;;;;4995588;28;20099;-55
2023/03/26 07:46:17;;;;;;;10.20;5.53;;;;;;;;;;4996051;28;20063;-55
2023/03/26 07:48:46;;;;;;;10.50;5.63;;;;;;;;;;5003951;28;20056;-56
2023/03/26 07:51:13;;;;;;;8.35;4.90;;;;;;;;;;4995119;28;20045;-54
2023/03/26 07:53:40;;;;;;;9.38;4.93;;;;;;;;;;4995524;28;20510;-56
2023/03/26 07:56:21;;;;;;;8.02;4.55;;;;;;;;;;4996447;28;20042;-55
2023/03/26 07:58:55;;;;;;;11.40;5.20;;;;;;;;;;5003429;28;20050;-56
2023/03/26 08:01:33;;;;;;;8.27;4.75;;;;;;;;;;4995671;28;20040;-55
2023/03/26 08:04:09;;;;;;;11.60;5.20;;;;;;;;;;4995773;28;20048;-56
2023/03/26 08:06:37;;;;;;;6.60;4.25;;;;;;;;;;4993853;28;20164;-56
2023/03/26 08:09:22;;;;;;;10.23;5.07;;;;;;;;;;4994945;28;20500;-56
2023/03/26 08:12:05;;;;;;;8.07;4.35;;;;;;;;;;4995849;28;20406;-56
2023/03/26 08:14:42;;;;;;;9.10;4.90;;;;;;;;;;4993229;28;20046;-57
2023/03/26 08:17:09;;;;;;;9.68;4.68;;;;;;;;;;4995806;28;20665;-57
2023/03/26 08:19:37;;;;;;;9.50;4.88;;;;;;;;;;4994759;28;20038;-57
2023/03/26 08:22:11;;;;;;;8.27;4.20;;;;;;;;;;4995554;28;20070;-57
2023/03/26 08:25:04;;;;;;;9.43;4.57;;;;;;;;;;5003827;28;20356;-57
2023/03/26 08:27:39;;;;;;;11.52;4.70;;;;;;;;;;4977248;28;20646;-57
2023/03/26 08:30:06;;;;;;;9.32;4.82;;;;;;;;;;4996009;28;20056;-57
2023/03/26 08:32:33;;;;;;;8.75;4.53;;;;;;;;;;4994717;28;21252;-55
2023/03/26 08:35:00;;;;;;;10.45;4.82;;;;;;;;;;4994592;28;20030;-53
2023/03/26 08:37:28;;;;;;;10.50;4.35;;;;;;;;;;4994519;28;20494;-55
2023/03/26 08:39:54;;;;;;;8.50;4.93;;;;;;;;;;4995843;28;20053;-55
2023/03/26 08:42:33;;;;;;;8.73;4.82;;;;;;;;;;4994181;28;20256;-54
2023/03/26 08:45:06;;;;;;;10.57;4.15;;;;;;;;;;4995463;28;20034;-53
2023/03/26 08:47:35;;;;;;;7.18;3.70;;;;;;;;;;4993846;28;20042;-54
2023/03/26 08:50:05;;;;;;;8.57;4.47;;;;;;;;;;4996222;28;20034;-56
2023/03/26 08:52:37;;;;;;;7.90;3.95;;;;;;;;;;4993750;28;20076;-55
2023/03/26 08:55:05;;;;;;;7.83;4.30;;;;;;;;;;4995631;28;20049;-55
2023/03/26 08:57:46;;;;;;;7.90;4.05;;;;;;;;;;4993109;28;20406;-57
2023/03/26 09:00:48;;;;;;;6.72;3.78;;;;;;;;;;4995602;28;20034;-57
2023/03/26 09:03:30;;;;;;;7.60;3.95;;;;;;;;;;4928479;28;20423;-57
2023/03/26 09:06:00;;;;;;;8.85;3.92;;;;;;;;;;4988849;28;20116;-57
2023/03/26 09:08:37;;;;;;;9.77;4.28;;;;;;;;;;5001584;28;20052;-57
2023/03/26 09:11:23;;;;;;;8.55;4.28;;;;;;;;;;4994819;28;20073;-57
2023/03/26 09:14:04;;;;;;;8.20;4.47;;;;;;;;;;5001541;28;20220;-57
2023/03/26 09:16:39;;;;;;;10.00;4.43;;;;;;;;;;4993541;28;20042;-56
2023/03/26 09:19:36;;;;;;;7.95;4.32;;;;;;;;;;4995086;28;20060;-56
2023/03/26 09:22:08;;;;;;;8.20;4.18;;;;;;;;;;4955437;28;21759;-58
2023/03/26 09:24:53;;;;;;;9.13;4.15;;;;;;;;;;4994941;28;20054;-57
2023/03/26 09:27:30;;;;;;;8.23;3.90;;;;;;;;;;4993650;28;20548;-56
2023/03/26 09:30:12;;;;;;;6.97;3.90;;;;;;;;;;4993872;28;20030;-55
2023/03/26 09:32:47;;;;;;;6.95;3.67;;;;;;;;;;4995278;28;20107;-55
2023/03/26 09:35:33;;;;;;;7.80;3.70;;;;;;;;;;4994847;28;20053;-56
2023/03/26 09:38:11;;;;;;;8.18;4.47;;;;;;;;;;4994214;28;20152;-54
2023/03/26 09:40:44;;;;;;;7.40;3.85;;;;;;;;;;4994176;28;20615;-57
2023/03/26 09:43:17;;;;;;;7.65;4.05;;;;;;;;;;5004696;28;20045;-55
2023/03/26 09:46:00;;;;;;;6.68;3.40;;;;;;;;;;5006579;28;20060;-56
2023/03/26 09:48:26;;;;;;;7.90;3.60;;;;;;;;;;4998496;28;20502;-56
2023/03/26 09:50:57;;;;;;;7.07;3.80;;;;;;;;;;4998611;28;20133;-56
2023/03/26 09:53:26;;;;;;;8.30;3.95;;;;;;;;;;4997945;28;20050;-55
2023/03/26 09:55:53;;;;;;;7.00;3.38;;;;;;;;;;4998309;28;20141;-55
2023/03/26 09:58:20;;;;;;;7.20;3.78;;;;;;;;;;4997205;28;20828;-56
2023/03/26 10:01:05;;;;;;;8.75;4.38;;;;;;;;;;4997315;28;20121;-56
2023/03/26 10:03:50;;;;;;;6.95;3.90;;;;;;;;;;4997689;28;20834;-57
2023/03/26 10:06:26;;;;;;;7.32;3.95;;;;;;;;;;4996507;28;20052;-56
2023/03/26 10:09:11;;;;;;;7.10;3.60;;;;;;;;;;4997317;28;20063;-57
2023/03/26 10:11:46;;;;;;;10.07;4.32;;;;;;;;;;4998479;28;20041;-57
2023/03/26 10:14:17;;;;;;;6.80;3.53;;;;;;;;;;4997652;28;20052;-56
2023/03/26 10:16:52;;;;;;;6.45;3.70;;;;;;;;;;5005318;28;20502;-56
2023/03/26 10:19:23;;;;;;;6.78;3.72;;;;;;;;;;4996335;28;20045;-56
2023/03/26 10:22:03;;;;;;;9.05;4.00;;;;;;;;;;4997623;28;20037;-58
2023/03/26 10:24:47;;;;;;;6.10;3.20;;;;;;;;;;4997731;28;20078;-58
2023/03/26 10:27:52;;;;;;;9.77;3.45;;;;;;;;;;4997628;28;20066;-55
2023/03/26 10:30:19;;;;;;;5.82;3.35;;;;;;;;;;4917296;29;20073;-56
2023/03/26 10:32:46;;;;;;;8.50;3.90;;;;;;;;;;4917263;29;20052;-56
2023/03/26 10:35:31;;;;;;;7.13;3.45;;;;;;;;;;4955847;28;20038;-56
2023/03/26 10:37:58;;;;;;;8.52;3.63;;;;;;;;;;4997315;28;20046;-57
2023/03/26 10:40:24;;;;;;;7.18;3.67;;;;;;;;;;4997622;28;20080;-56
2023/03/26 10:43:09;;;;;;;8.35;4.28;;;;;;;;;;4998904;28;20565;-57
2023/03/26 10:45:45;;;;;;;6.68;3.47;;;;;;;;;;4996734;28;20125;-54
2023/03/26 10:48:23;;;;;;;7.63;3.83;;;;;;;;;;4997404;28;20728;-55
2023/03/26 10:50:53;;;;;;;7.55;3.40;;;;;;;;;;5005084;28;20034;-54
2023/03/26 10:53:29;;;;;;;8.18;3.97;;;;;;;;;;4996463;28;20054;-57
2023/03/26 10:56:00;;;;;;;6.32;3.30;;;;;;;;;;5005418;28;20242;-55
2023/03/26 10:58:31;;;;;;;5.97;3.05;;;;;;;;;;4997289;28;20138;-56
2023/03/26 11:01:00;;;;;;;6.18;3.25;;;;;;;;;;4997317;28;20037;-57
2023/03/26 11:03:42;;;;;;;11.25;3.22;;;;;;;;;;4996921;28;20968;-57
2023/03/26 11:06:27;;;;;;;7.30;3.25;;;;;;;;;;4996231;28;20049;-57
2023/03/26 11:09:08;;;;;;;7.15;3.40;;;;;;;;;;5003488;28;20042;-58
2023/03/26 11:11:47;;;;;;;6.68;3.42;;;;;;;;;;4997058;28;20084;-57
2023/03/26 11:14:15;;;;;;;6.72;3.60;;;;;;;;;;4996745;28;21805;-57
2023/03/26 11:17:00;;;;;;;10.02;3.65;;;;;;;;;;5012210;28;20053;-57
2023/03/26 11:19:26;;;;;;;7.85;3.35;;;;;;;;;;4997247;28;20133;-56
2023/03/26 11:22:16;;;;;;;8.75;3.58;;;;;;;;;;4997321;28;20053;-58
2023/03/26 11:24:59;;;;;;;7.28;3.67;;;;;;;;;;4987077;28;20033;-56
2023/03/26 11:27:31;;;;;;;9.13;3.60;;;;;;;;;;4995856;28;20061;-56
2023/03/26 11:30:01;;;;;;;10.18;3.80;;;;;;;;;;4996950;28;20129;-56
2023/03/26 11:32:36;;;;;;;7.60;3.78;;;;;;;;;;4995835;28;21597;-56
2023/03/26 11:35:07;;;;;;;6.82;3.47;;;;;;;;;;4996180;28;20125;-56
2023/03/26 11:37:37;;;;;;;9.38;3.90;;;;;;;;;;4995845;28;20057;-55
2023/03/26 11:40:08;;;;;;;8.88;3.72;;;;;;;;;;4997282;28;20140;-56
2023/03/26 11:42:34;;;;;;;7.22;3.63;;;;;;;;;;4996405;28;20049;-53
2023/03/26 11:45:05;;;;;;;6.50;3.47;;;;;;;;;;4996331;28;20099;-55
2023/03/26 11:48:02;;;;;;;6.10;3.50;;;;;;;;;;4996124;28;20116;-54
2023/03/26 11:50:32;;;;;;;6.85;3.60;;;;;;;;;;4992243;28;20045;-56
2023/03/26 11:53:02;;;;;;;6.25;3.03;;;;;;;;;;4997332;28;20588;-54
2023/03/26 11:55:30;;;;;;;6.63;2.88;;;;;;;;;;4997739;28;20140;-53
2023/03/26 11:57:58;;;;;;;6.60;2.92;;;;;;;;;;4995654;28;20048;-56
2023/03/26 12:00:26;;;;;;;7.00;3.25;;;;;;;;;;4994551;28;20347;-55
2023/03/26 12:02:56;;;;;;;7.82;3.53;;;;;;;;;;4996112;28;20050;-56
2023/03/26 12:05:26;;;;;;;7.90;3.25;;;;;;;;;;4995616;28;21722;-56
2023/03/26 12:07:57;;;;;;;6.15;3.00;;;;;;;;;;4995633;28;20744;-57
2023/03/26 12:10:36;;;;;;;6.57;3.08;;;;;;;;;;4995976;28;20172;-57
2023/03/26 12:13:21;;;;;;;7.15;3.30;;;;;;;;;;4996306;28;20054;-56
2023/03/26 12:15:48;;;;;;;6.68;2.83;;;;;;;;;;5002844;28;20070;-53
2023/03/26 12:18:23;;;;;;;5.65;2.85;;;;;;;;;;4996776;28;20084;-55
2023/03/26 12:21:01;;;;;;;9.95;3.10;;;;;;;;;;5002454;28;20046;-56
2023/03/26 12:23:40;;;;;;;6.78;2.70;;;;;;;;;;4995166;28;20050;-56
2023/03/26 12:26:13;;;;;;;4.65;2.53;;;;;;;;;;4995290;28;20046;-55
2023/03/26 12:28:44;;;;;;;4.50;2.25;;;;;;;;;;4995441;28;20053;-56
2023/03/26 12:31:16;;;;;;;5.45;2.47;;;;;;;;;;4995591;28;20037;-56
2023/03/26 12:33:44;;;;;;;4.63;2.47;;;;;;;;;;5003634;28;20052;-55
2023/03/26 12:36:19;;;;;;;5.93;2.92;;;;;;;;;;4994516;28;20399;-57
2023/03/26 12:38:46;;;;;;;7.57;2.67;;;;;;;;;;4995880;28;20068;-56
2023/03/26 12:41:13;;;;;;;7.70;3.17;;;;;;;;;;5002988;28;20288;-57
2023/03/26 12:43:46;;;;;;;7.05;3.13;;;;;;;;;;4995443;28;20044;-55
2023/03/26 12:46:26;;;;;;;6.28;3.05;;;;;;;;;;4992983;28;20050;-55
2023/03/26 12:48:56;;;;;;;5.22;2.50;;;;;;;;;;5001441;28;20045;-57
2023/03/26 12:51:24;;;;;;;5.75;2.90;;;;;;;;;;4995354;28;20061;-55
2023/03/26 12:54:03;;;;;;;5.78;2.33;;;;;;;;;;4995583;28;20077;-56
2023/03/26 12:56:54;;;;;;;4.38;2.33;;;;;;;;;;4993842;28;20495;-57
2023/03/26 12:59:28;;;;;;;5.30;2.67;;;;;;;;;;4995183;28;20053;-57
2023/03/26 13:02:07;;;;;;;5.05;2.40;;;;;;;;;;4995661;28;20038;-56
2023/03/26 13:04:49;;;;;;;6.00;2.40;;;;;;;;;;4995031;28;20072;-57
2023/03/26 13:07:21;;;;;;;5.07;2.78;;;;;;;;;;4994252;28;20588;-57
2023/03/26 13:10:07;;;;;;;5.25;2.35;;;;;;;;;;5002150;28;20963;-57
2023/03/26 13:12:40;;;;;;;6.47;2.50;;;;;;;;;;4994298;28;20069;-55
2023/03/26 13:15:12;;;;;;;5.82;2.83;;;;;;;;;;4994762;28;20046;-57
2023/03/26 13:17:58;;;;;;;5.28;2.65;;;;;;;;;;4993106;28;20038;-57
2023/03/26 13:20:42;;;;;;;4.72;2.55;;;;;;;;;;4993234;28;20053;-56
2023/03/26 13:23:30;;;;;;;6.47;2.72;;;;;;;;;;4995374;28;20061;-53
2023/03/26 13:26:09;;;;;;;6.45;2.80;;;;;;;;;;4996983;28;20053;-56
2023/03/26 13:28:41;;;;;;;7.38;2.70;;;;;;;;;;4994432;28;20053;-56
2023/03/26 13:31:12;;;;;;;4.53;1.98;;;;;;;;;;4994873;28;20064;-56
2023/03/26 13:33:53;;;;;;;5.28;2.25;;;;;;;;;;4995209;28;20054;-57
2023/03/26 13:36:38;;;;;;;5.28;2.00;;;;;;;;;;4993929;28;20057;-57
2023/03/26 13:39:26;;;;;;;5.15;2.03;;;;;;;;;;4995619;28;20057;-57
2023/03/26 13:41:59;;;;;;;5.05;2.05;;;;;;;;;;5001993;28;20510;-56
2023/03/26 13:44:34;;;;;;;5.75;2.45;;;;;;;;;;4993378;28;20048;-58
2023/03/26 13:47:05;;;;;;;4.55;1.98;;;;;;;;;;4994607;28;20049;-56
2023/03/26 13:49:38;;;;;;;4.30;1.95;;;;;;;;;;4994766;28;20041;-59
2023/03/26 13:52:04;;;;;;;;;;;;;;;;;;4995640;28;20133;-58
2023/03/26 13:54:57;;;;;;;4.13;1.80;;;;;;;;;;4994648;28;20024;-59
2023/03/26 13:57:44;;;;;;;7.68;2.85;;;;;;;;;;4991460;28;20116;-57
2023/03/26 14:00:37;;;;;;;4.47;2.00;;;;;;;;;;4995464;28;20109;-56
2023/03/26 14:03:10;;;;;;;5.50;2.08;;;;;;;;;;4991151;28;20034;-58
2023/03/26 14:05:42;;;;;;;4.80;1.73;;;;;;;;;;4993662;28;20045;-57
2023/03/26 14:08:18;;;;;;;3.05;1.40;;;;;;;;;;4995447;28;21635;-58
2023/03/26 14:10:47;;;;;;;3.97;1.70;;;;;;;;;;4993501;28;20042;-55
2023/03/26 14:13:20;;;;;;;4.00;1.80;;;;;;;;;;4993376;28;20592;-58
2023/03/26 14:15:49;;;;;;;3.95;1.90;;;;;;;;;;5002163;28;20038;-57
2023/03/26 14:18:35;;;;;;;5.00;1.88;;;;;;;;;;4995314;28;20042;-55
2023/03/26 14:21:09;;;;;;;3.80;1.80;;;;;;;;;;5000047;28;20065;-55
2023/03/26 14:23:35;;;;;;;;;;;;;;;;;;4996979;28;20030;-57
2023/03/26 14:26:20;;;;;;;4.00;1.85;;;;;;;;;;4994848;28;19917;-55
2023/03/26 14:28:53;;;;;;;4.43;2.17;;;;;;;;;;5003075;28;20069;-58
2023/03/26 14:31:27;;;;;;;2.97;1.60;;;;;;;;;;4997299;28;20048;-57
2023/03/26 14:34:03;;;;;;;5.28;2.30;;;;;;;;;;4999604;28;20325;-58
2023/03/26 14:36:36;;;;;;;5.43;2.10;;;;;;;;;;4996924;28;20788;-58
2023/03/26 14:39:21;;;;;;;5.22;2.13;;;;;;;;;;4993399;28;20057;-57
2023/03/26 14:41:52;;;;;;;5.18;2.28;;;;;;;;;;5004506;28;20125;-56
2023/03/26 14:44:37;;;;;;;6.45;2.50;;;;;;;;;;4997627;28;20042;-58
2023/03/26 14:47:15;;;;;;;5.80;2.17;;;;;;;;;;4997056;28;20052;-55
2023/03/26 14:49:44;;;;;;;4.35;2.25;;;;;;;;;;5004682;28;20099;-57
2023/03/26 14:52:17;;;;;;;5.82;2.70;;;;;;;;;;4997212;28;20041;-57
2023/03/26 14:54:45;;;;;;;3.03;1.45;;;;;;;;;;4996742;28;20160;-56
2023/03/26 14:57:31;;;;;;;6.95;2.88;;;;;;;;;;4996013;28;20148;-58
2023/03/26 15:00:05;;;;;;;4.75;2.20;;;;;;;;;;5002397;28;20041;-56
2023/03/26 15:02:50;;;;;;;4.35;2.13;;;;;;;;;;4996586;28;20530;-57
2023/03/26 15:05:23;;;;;;;3.13;1.40;;;;;;;;;;4997314;28;20042;-57